sensor_id;sensor_type;location;lat;lon;timestamp;temperature;humidity
17887;DHT22;9069;52.044;7.472;2022-10-15T00:00:42;17.10;96.90
17887;DHT22;9069;52.044;7.472;2022-10-15T00:03:09;17.10;96.90
17887;DHT22;9069;52.044;7.472;2022-10-15T00:05:37;17.10;96.80
17887;DHT22;9069;52.044;7.472;2022-10-15T00:08:04;17.10;96.80
17887;DHT22;9069;52.044;7.472;2022-10-15T00:11:00;17.10;96.80
17887;DHT22;9069;52.044;7.472;2022-10-15T00:13:27;17.10;96.90
17887;DHT22;9069;52.044;7.472;2022-10-15T00:15:54;17.10;96.80
17887;DHT22;9069;52.044;7.472;2022-10-15T00:18:21;17.10;96.80
17887;DHT22;9069;52.044;7.472;2022-10-15T00:20:47;17.10;96.70
17887;DHT22;9069;52.044;7.472;2022-10-15T00:23:14;17.10;96.70
17887;DHT22;9069;52.044;7.472;2022-10-15T00:25:40;17.10;96.70
17887;DHT22;9069;52.044;7.472;2022-10-15T00:28:07;17.00;96.70
17887;DHT22;9069;52.044;7.472;2022-10-15T00:30:34;17.00;96.60
17887;DHT22;9069;52.044;7.472;2022-10-15T00:33:01;17.00;96.60
17887;DHT22;9069;52.044;7.472;2022-10-15T00:35:27;17.00;96.60
17887;DHT22;9069;52.044;7.472;2022-10-15T00:37:54;17.00;96.60
17887;DHT22;9069;52.044;7.472;2022-10-15T00:40:21;17.00;96.60
17887;DHT22;9069;52.044;7.472;2022-10-15T00:42:48;17.00;96.90
17887;DHT22;9069;52.044;7.472;2022-10-15T00:45:15;17.00;96.50
17887;DHT22;9069;52.044;7.472;2022-10-15T00:47:47;17.00;96.50
17887;DHT22;9069;52.044;7.472;2022-10-15T00:50:23;16.90;96.40
17887;DHT22;9069;52.044;7.472;2022-10-15T00:53:06;16.90;96.40
17887;DHT22;9069;52.044;7.472;2022-10-15T00:55:38;16.90;96.30
17887;DHT22;9069;52.044;7.472;2022-10-15T00:58:12;16.90;96.30
17887;DHT22;9069;52.044;7.472;2022-10-15T01:00:41;16.90;96.20
17887;DHT22;9069;52.044;7.472;2022-10-15T01:03:08;16.80;96.20
17887;DHT22;9069;52.044;7.472;2022-10-15T01:05:36;16.80;96.20
17887;DHT22;9069;52.044;7.472;2022-10-15T01:08:08;16.80;96.20
17887;DHT22;9069;52.044;7.472;2022-10-15T01:16:25;16.80;96.30
17887;DHT22;9069;52.044;7.472;2022-10-15T01:19:01;16.80;96.40
17887;DHT22;9069;52.044;7.472;2022-10-15T01:21:49;16.70;96.30
17887;DHT22;9069;52.044;7.472;2022-10-15T01:24:27;16.70;96.40
17887;DHT22;9069;52.044;7.472;2022-10-15T01:33:03;16.70;96.50
17887;DHT22;9069;52.044;7.472;2022-10-15T01:38:26;16.70;96.60
17887;DHT22;9069;52.044;7.472;2022-10-15T01:41:15;16.70;96.60
17887;DHT22;9069;52.044;7.472;2022-10-15T01:44:17;16.70;96.60
17887;DHT22;9069;52.044;7.472;2022-10-15T01:47:04;16.70;96.60
17887;DHT22;9069;52.044;7.472;2022-10-15T01:49:34;16.70;96.80
17887;DHT22;9069;52.044;7.472;2022-10-15T01:52:11;16.60;96.70
17887;DHT22;9069;52.044;7.472;2022-10-15T01:54:40;16.70;96.80
17887;DHT22;9069;52.044;7.472;2022-10-15T01:57:10;16.70;96.80
17887;DHT22;9069;52.044;7.472;2022-10-15T01:59:39;16.70;96.80
17887;DHT22;9069;52.044;7.472;2022-10-15T02:02:07;16.70;96.80
17887;DHT22;9069;52.044;7.472;2022-10-15T02:04:34;16.70;96.90
17887;DHT22;9069;52.044;7.472;2022-10-15T02:09:45;16.70;97.00
17887;DHT22;9069;52.044;7.472;2022-10-15T02:15:33;16.70;97.00
17887;DHT22;9069;52.044;7.472;2022-10-15T02:18:15;16.70;97.10
17887;DHT22;9069;52.044;7.472;2022-10-15T02:20:56;16.70;97.00
17887;DHT22;9069;52.044;7.472;2022-10-15T02:23:37;16.70;97.00
17887;DHT22;9069;52.044;7.472;2022-10-15T02:26:08;16.70;97.00
17887;DHT22;9069;52.044;7.472;2022-10-15T02:28:44;16.70;97.00
17887;DHT22;9069;52.044;7.472;2022-10-15T02:31:13;16.70;97.00
17887;DHT22;9069;52.044;7.472;2022-10-15T02:33:43;16.70;97.00
17887;DHT22;9069;52.044;7.472;2022-10-15T02:36:12;16.60;97.00
17887;DHT22;9069;52.044;7.472;2022-10-15T02:38:42;16.60;96.90
17887;DHT22;9069;52.044;7.472;2022-10-15T02:41:10;16.60;96.90
17887;DHT22;9069;52.044;7.472;2022-10-15T02:43:38;16.60;96.90
17887;DHT22;9069;52.044;7.472;2022-10-15T02:46:09;16.60;96.90
17887;DHT22;9069;52.044;7.472;2022-10-15T02:48:36;16.60;97.00
17887;DHT22;9069;52.044;7.472;2022-10-15T02:51:03;16.60;97.00
17887;DHT22;9069;52.044;7.472;2022-10-15T02:53:31;16.60;97.00
17887;DHT22;9069;52.044;7.472;2022-10-15T02:55:58;16.60;97.00
17887;DHT22;9069;52.044;7.472;2022-10-15T02:58:24;16.60;97.00
17887;DHT22;9069;52.044;7.472;2022-10-15T03:00:52;16.60;97.00
17887;DHT22;9069;52.044;7.472;2022-10-15T03:03:19;16.60;97.00
17887;DHT22;9069;52.044;7.472;2022-10-15T03:05:45;16.50;97.00
17887;DHT22;9069;52.044;7.472;2022-10-15T03:08:13;16.50;97.00
17887;DHT22;9069;52.044;7.472;2022-10-15T03:10:41;16.50;97.00
17887;DHT22;9069;52.044;7.472;2022-10-15T03:13:08;16.50;97.00
17887;DHT22;9069;52.044;7.472;2022-10-15T03:15:43;16.50;97.00
17887;DHT22;9069;52.044;7.472;2022-10-15T03:18:09;16.50;97.00
17887;DHT22;9069;52.044;7.472;2022-10-15T03:20:36;16.50;96.90
17887;DHT22;9069;52.044;7.472;2022-10-15T03:23:03;16.50;97.00
17887;DHT22;9069;52.044;7.472;2022-10-15T03:25:31;16.50;97.00
17887;DHT22;9069;52.044;7.472;2022-10-15T03:28:01;16.50;97.00
17887;DHT22;9069;52.044;7.472;2022-10-15T03:30:35;16.50;96.90
17887;DHT22;9069;52.044;7.472;2022-10-15T03:33:03;16.50;97.00
17887;DHT22;9069;52.044;7.472;2022-10-15T03:35:29;16.50;97.00
17887;DHT22;9069;52.044;7.472;2022-10-15T03:37:56;16.40;97.00
17887;DHT22;9069;52.044;7.472;2022-10-15T03:40:23;16.50;97.00
17887;DHT22;9069;52.044;7.472;2022-10-15T03:42:54;16.40;97.00
17887;DHT22;9069;52.044;7.472;2022-10-15T03:45:24;16.40;97.00
17887;DHT22;9069;52.044;7.472;2022-10-15T03:48:05;16.40;97.00
17887;DHT22;9069;52.044;7.472;2022-10-15T03:50:33;16.40;97.00
17887;DHT22;9069;52.044;7.472;2022-10-15T03:53:05;16.40;97.00
17887;DHT22;9069;52.044;7.472;2022-10-15T03:55:32;16.40;97.00
17887;DHT22;9069;52.044;7.472;2022-10-15T03:58:00;16.40;97.00
17887;DHT22;9069;52.044;7.472;2022-10-15T04:00:27;16.40;97.00
17887;DHT22;9069;52.044;7.472;2022-10-15T04:02:58;16.40;97.00
17887;DHT22;9069;52.044;7.472;2022-10-15T04:05:26;16.40;97.00
17887;DHT22;9069;52.044;7.472;2022-10-15T04:07:59;16.40;97.00
17887;DHT22;9069;52.044;7.472;2022-10-15T04:10:29;16.40;97.10
17887;DHT22;9069;52.044;7.472;2022-10-15T04:12:56;16.40;97.00
17887;DHT22;9069;52.044;7.472;2022-10-15T04:15:23;16.40;97.40
17887;DHT22;9069;52.044;7.472;2022-10-15T04:17:54;16.40;97.00
17887;DHT22;9069;52.044;7.472;2022-10-15T04:20:22;16.40;97.00
17887;DHT22;9069;52.044;7.472;2022-10-15T04:22:49;16.40;97.00
17887;DHT22;9069;52.044;7.472;2022-10-15T04:25:16;16.40;97.00
17887;DHT22;9069;52.044;7.472;2022-10-15T04:27:43;16.40;97.00
17887;DHT22;9069;52.044;7.472;2022-10-15T04:30:14;16.40;97.00
17887;DHT22;9069;52.044;7.472;2022-10-15T04:32:46;16.40;97.00
17887;DHT22;9069;52.044;7.472;2022-10-15T04:35:13;16.40;97.00
17887;DHT22;9069;52.044;7.472;2022-10-15T04:37:49;16.40;97.00
17887;DHT22;9069;52.044;7.472;2022-10-15T04:40:16;16.40;97.10
17887;DHT22;9069;52.044;7.472;2022-10-15T04:42:44;16.40;97.10
17887;DHT22;9069;52.044;7.472;2022-10-15T04:45:11;16.40;97.10
17887;DHT22;9069;52.044;7.472;2022-10-15T04:47:38;16.40;97.10
17887;DHT22;9069;52.044;7.472;2022-10-15T04:50:08;16.30;97.10
17887;DHT22;9069;52.044;7.472;2022-10-15T04:52:53;16.30;97.10
17887;DHT22;9069;52.044;7.472;2022-10-15T04:55:21;16.30;97.10
17887;DHT22;9069;52.044;7.472;2022-10-15T04:57:49;16.30;97.20
17887;DHT22;9069;52.044;7.472;2022-10-15T05:00:23;16.30;97.20
17887;DHT22;9069;52.044;7.472;2022-10-15T05:03:08;16.30;97.20
17887;DHT22;9069;52.044;7.472;2022-10-15T05:05:42;16.30;97.20
17887;DHT22;9069;52.044;7.472;2022-10-15T05:08:09;16.30;97.30
17887;DHT22;9069;52.044;7.472;2022-10-15T05:11:01;16.30;97.30
17887;DHT22;9069;52.044;7.472;2022-10-15T05:13:29;16.30;97.30
17887;DHT22;9069;52.044;7.472;2022-10-15T05:15:57;16.30;97.30
17887;DHT22;9069;52.044;7.472;2022-10-15T05:18:24;16.30;97.30
17887;DHT22;9069;52.044;7.472;2022-10-15T05:20:51;16.30;97.40
17887;DHT22;9069;52.044;7.472;2022-10-15T05:23:19;16.30;97.40
17887;DHT22;9069;52.044;7.472;2022-10-15T05:26:00;16.30;97.80
17887;DHT22;9069;52.044;7.472;2022-10-15T05:28:27;16.30;97.50
17887;DHT22;9069;52.044;7.472;2022-10-15T05:30:54;16.30;97.50
17887;DHT22;9069;52.044;7.472;2022-10-15T05:33:20;16.30;97.50
17887;DHT22;9069;52.044;7.472;2022-10-15T05:35:47;16.30;97.60
17887;DHT22;9069;52.044;7.472;2022-10-15T05:38:14;16.30;97.60
17887;DHT22;9069;52.044;7.472;2022-10-15T05:40:46;16.30;97.60
17887;DHT22;9069;52.044;7.472;2022-10-15T05:43:18;16.30;98.00
17887;DHT22;9069;52.044;7.472;2022-10-15T05:45:47;16.30;97.50
17887;DHT22;9069;52.044;7.472;2022-10-15T05:48:13;16.30;97.50
17887;DHT22;9069;52.044;7.472;2022-10-15T05:50:41;16.40;97.60
17887;DHT22;9069;52.044;7.472;2022-10-15T05:53:13;16.40;97.60
17887;DHT22;9069;52.044;7.472;2022-10-15T05:55:45;16.40;97.80
17887;DHT22;9069;52.044;7.472;2022-10-15T05:58:12;16.40;97.60
17887;DHT22;9069;52.044;7.472;2022-10-15T06:00:38;16.40;97.60
17887;DHT22;9069;52.044;7.472;2022-10-15T06:03:05;16.40;97.60
17887;DHT22;9069;52.044;7.472;2022-10-15T06:05:31;16.40;97.60
17887;DHT22;9069;52.044;7.472;2022-10-15T06:07:58;16.40;98.00
17887;DHT22;9069;52.044;7.472;2022-10-15T06:10:25;16.40;97.70
17887;DHT22;9069;52.044;7.472;2022-10-15T06:12:53;16.40;97.70
17887;DHT22;9069;52.044;7.472;2022-10-15T06:15:21;16.40;97.70
17887;DHT22;9069;52.044;7.472;2022-10-15T06:17:53;16.40;97.80
17887;DHT22;9069;52.044;7.472;2022-10-15T06:20:20;16.40;97.90
17887;DHT22;9069;52.044;7.472;2022-10-15T06:22:47;16.50;97.80
17887;DHT22;9069;52.044;7.472;2022-10-15T06:25:13;16.50;97.90
17887;DHT22;9069;52.044;7.472;2022-10-15T06:27:40;16.50;97.90
17887;DHT22;9069;52.044;7.472;2022-10-15T06:30:07;16.50;98.00
17887;DHT22;9069;52.044;7.472;2022-10-15T06:32:34;16.50;98.00
17887;DHT22;9069;52.044;7.472;2022-10-15T06:35:01;16.50;98.00
17887;DHT22;9069;52.044;7.472;2022-10-15T06:37:28;16.50;98.10
17887;DHT22;9069;52.044;7.472;2022-10-15T06:39:57;16.50;98.10
17887;DHT22;9069;52.044;7.472;2022-10-15T06:42:23;16.50;98.20
17887;DHT22;9069;52.044;7.472;2022-10-15T06:44:53;16.50;98.20
17887;DHT22;9069;52.044;7.472;2022-10-15T06:47:20;16.50;98.30
17887;DHT22;9069;52.044;7.472;2022-10-15T06:49:48;16.60;98.30
17887;DHT22;9069;52.044;7.472;2022-10-15T06:52:15;16.60;98.30
17887;DHT22;9069;52.044;7.472;2022-10-15T06:54:42;16.60;98.40
17887;DHT22;9069;52.044;7.472;2022-10-15T06:57:09;16.60;98.40
17887;DHT22;9069;52.044;7.472;2022-10-15T06:59:36;16.70;98.40
17887;DHT22;9069;52.044;7.472;2022-10-15T07:02:09;16.70;98.40
17887;DHT22;9069;52.044;7.472;2022-10-15T07:04:35;16.70;98.50
17887;DHT22;9069;52.044;7.472;2022-10-15T07:07:02;16.70;98.50
17887;DHT22;9069;52.044;7.472;2022-10-15T07:09:29;16.80;98.50
17887;DHT22;9069;52.044;7.472;2022-10-15T07:11:56;16.80;98.50
17887;DHT22;9069;52.044;7.472;2022-10-15T07:14:23;16.80;98.60
17887;DHT22;9069;52.044;7.472;2022-10-15T07:16:50;16.80;98.60
17887;DHT22;9069;52.044;7.472;2022-10-15T07:19:16;16.80;98.60
17887;DHT22;9069;52.044;7.472;2022-10-15T07:21:44;16.90;98.70
17887;DHT22;9069;52.044;7.472;2022-10-15T07:24:12;16.90;98.60
17887;DHT22;9069;52.044;7.472;2022-10-15T07:26:39;16.90;98.60
17887;DHT22;9069;52.044;7.472;2022-10-15T07:29:05;16.90;98.60
17887;DHT22;9069;52.044;7.472;2022-10-15T07:31:32;17.00;98.70
17887;DHT22;9069;52.044;7.472;2022-10-15T07:33:59;17.00;98.70
17887;DHT22;9069;52.044;7.472;2022-10-15T07:36:26;17.00;98.70
17887;DHT22;9069;52.044;7.472;2022-10-15T07:38:52;17.00;98.80
17887;DHT22;9069;52.044;7.472;2022-10-15T07:41:19;17.10;98.80
17887;DHT22;9069;52.044;7.472;2022-10-15T07:43:46;17.10;98.90
17887;DHT22;9069;52.044;7.472;2022-10-15T07:46:12;17.10;98.90
17887;DHT22;9069;52.044;7.472;2022-10-15T07:48:39;17.20;98.90
17887;DHT22;9069;52.044;7.472;2022-10-15T07:51:06;17.20;98.90
17887;DHT22;9069;52.044;7.472;2022-10-15T07:53:33;17.20;98.90
17887;DHT22;9069;52.044;7.472;2022-10-15T07:56:02;17.30;98.90
17887;DHT22;9069;52.044;7.472;2022-10-15T07:58:32;17.30;98.90
17887;DHT22;9069;52.044;7.472;2022-10-15T08:01:04;17.30;98.90
17887;DHT22;9069;52.044;7.472;2022-10-15T08:03:31;17.30;99.00
17887;DHT22;9069;52.044;7.472;2022-10-15T08:06:02;17.40;99.00
17887;DHT22;9069;52.044;7.472;2022-10-15T08:08:29;17.40;99.00
17887;DHT22;9069;52.044;7.472;2022-10-15T08:10:56;17.40;99.00
17887;DHT22;9069;52.044;7.472;2022-10-15T08:13:23;17.50;99.00
17887;DHT22;9069;52.044;7.472;2022-10-15T08:15:53;17.50;98.90
17887;DHT22;9069;52.044;7.472;2022-10-15T08:18:25;17.50;98.90
17887;DHT22;9069;52.044;7.472;2022-10-15T08:20:52;17.60;98.90
17887;DHT22;9069;52.044;7.472;2022-10-15T08:23:19;17.60;98.90
17887;DHT22;9069;52.044;7.472;2022-10-15T08:25:46;17.60;98.90
17887;DHT22;9069;52.044;7.472;2022-10-15T08:28:13;17.70;99.00
17887;DHT22;9069;52.044;7.472;2022-10-15T08:30:39;17.70;98.90
17887;DHT22;9069;52.044;7.472;2022-10-15T08:33:10;17.80;98.90
17887;DHT22;9069;52.044;7.472;2022-10-15T08:35:42;17.80;98.90
17887;DHT22;9069;52.044;7.472;2022-10-15T08:38:12;17.80;98.90
17887;DHT22;9069;52.044;7.472;2022-10-15T08:40:55;17.80;98.90
17887;DHT22;9069;52.044;7.472;2022-10-15T08:43:35;17.90;98.90
17887;DHT22;9069;52.044;7.472;2022-10-15T08:46:07;17.90;98.90
17887;DHT22;9069;52.044;7.472;2022-10-15T08:48:41;17.90;98.90
17887;DHT22;9069;52.044;7.472;2022-10-15T08:51:16;18.00;99.00
17887;DHT22;9069;52.044;7.472;2022-10-15T08:53:54;18.00;99.00
17887;DHT22;9069;52.044;7.472;2022-10-15T08:56:34;18.00;99.00
17887;DHT22;9069;52.044;7.472;2022-10-15T09:07:08;18.20;99.10
17887;DHT22;9069;52.044;7.472;2022-10-15T09:13:03;18.40;99.10
17887;DHT22;9069;52.044;7.472;2022-10-15T09:15:46;18.50;99.10
17887;DHT22;9069;52.044;7.472;2022-10-15T09:18:21;18.50;98.80
17887;DHT22;9069;52.044;7.472;2022-10-15T09:20:49;18.50;98.60
17887;DHT22;9069;52.044;7.472;2022-10-15T09:23:21;18.60;98.50
17887;DHT22;9069;52.044;7.472;2022-10-15T09:25:56;18.60;98.30
17887;DHT22;9069;52.044;7.472;2022-10-15T09:28:28;18.60;98.20
17887;DHT22;9069;52.044;7.472;2022-10-15T09:30:58;18.60;98.20
17887;DHT22;9069;52.044;7.472;2022-10-15T09:33:34;18.60;98.20
17887;DHT22;9069;52.044;7.472;2022-10-15T09:44:35;18.60;98.20
17887;DHT22;9069;52.044;7.472;2022-10-15T09:47:14;18.70;98.20
17887;DHT22;9069;52.044;7.472;2022-10-15T09:49:41;18.70;98.30
17887;DHT22;9069;52.044;7.472;2022-10-15T10:00:56;19.20;99.90
17887;DHT22;9069;52.044;7.472;2022-10-15T10:03:25;19.70;99.90
17887;DHT22;9069;52.044;7.472;2022-10-15T10:06:07;20.00;99.90
17887;DHT22;9069;52.044;7.472;2022-10-15T10:08:57;20.50;99.90
17887;DHT22;9069;52.044;7.472;2022-10-15T10:11:26;21.00;99.90
17887;DHT22;9069;52.044;7.472;2022-10-15T10:15:03;21.30;99.90
17887;DHT22;9069;52.044;7.472;2022-10-15T10:17:25;21.70;98.10
17887;DHT22;9069;52.044;7.472;2022-10-15T10:30:48;22.50;96.00
17887;DHT22;9069;52.044;7.472;2022-10-15T10:33:25;22.50;95.30
17887;DHT22;9069;52.044;7.472;2022-10-15T10:35:53;22.50;94.70
17887;DHT22;9069;52.044;7.472;2022-10-15T10:38:32;22.50;94.80
17887;DHT22;9069;52.044;7.472;2022-10-15T10:41:02;22.40;94.00
17887;DHT22;9069;52.044;7.472;2022-10-15T10:43:34;22.40;94.20
17887;DHT22;9069;52.044;7.472;2022-10-15T10:48:50;22.30;94.40
17887;DHT22;9069;52.044;7.472;2022-10-15T10:51:22;22.30;94.50
17887;DHT22;9069;52.044;7.472;2022-10-15T10:56:32;22.20;93.90
17887;DHT22;9069;52.044;7.472;2022-10-15T10:59:03;22.30;94.10
17887;DHT22;9069;52.044;7.472;2022-10-15T11:01:35;22.20;94.10
17887;DHT22;9069;52.044;7.472;2022-10-15T11:04:03;22.20;94.10
17887;DHT22;9069;52.044;7.472;2022-10-15T11:07:02;22.20;94.00
17887;DHT22;9069;52.044;7.472;2022-10-15T11:09:45;22.20;93.40
17887;DHT22;9069;52.044;7.472;2022-10-15T11:18:31;22.20;93.40
17887;DHT22;9069;52.044;7.472;2022-10-15T11:38:50;22.00;93.30
17887;DHT22;9069;52.044;7.472;2022-10-15T11:50:24;22.00;92.90
17887;DHT22;9069;52.044;7.472;2022-10-15T11:56:12;22.00;93.10
17887;DHT22;9069;52.044;7.472;2022-10-15T11:58:48;21.90;93.30
17887;DHT22;9069;52.044;7.472;2022-10-15T12:01:21;21.90;93.60
17887;DHT22;9069;52.044;7.472;2022-10-15T12:03:56;21.80;93.80
17887;DHT22;9069;52.044;7.472;2022-10-15T12:06:27;21.80;94.00
17887;DHT22;9069;52.044;7.472;2022-10-15T12:08:58;21.70;94.00
17887;DHT22;9069;52.044;7.472;2022-10-15T12:11:27;21.60;94.10
17887;DHT22;9069;52.044;7.472;2022-10-15T12:17:10;21.50;94.30
17887;DHT22;9069;52.044;7.472;2022-10-15T12:20:29;21.40;94.40
17887;DHT22;9069;52.044;7.472;2022-10-15T12:22:58;21.40;94.50
17887;DHT22;9069;52.044;7.472;2022-10-15T12:30:34;21.20;94.70
17887;DHT22;9069;52.044;7.472;2022-10-15T12:36:02;21.10;95.20
17887;DHT22;9069;52.044;7.472;2022-10-15T12:38:37;21.00;95.20
17887;DHT22;9069;52.044;7.472;2022-10-15T12:41:08;20.90;95.30
17887;DHT22;9069;52.044;7.472;2022-10-15T12:43:40;20.90;95.40
17887;DHT22;9069;52.044;7.472;2022-10-15T12:46:09;20.90;95.60
17887;DHT22;9069;52.044;7.472;2022-10-15T12:48:44;20.80;95.60
17887;DHT22;9069;52.044;7.472;2022-10-15T12:53:49;20.80;95.90
17887;DHT22;9069;52.044;7.472;2022-10-15T12:58:52;20.70;96.20
17887;DHT22;9069;52.044;7.472;2022-10-15T13:08:52;20.60;96.30
17887;DHT22;9069;52.044;7.472;2022-10-15T13:11:42;20.60;96.30
17887;DHT22;9069;52.044;7.472;2022-10-15T13:14:38;20.50;96.40
17887;DHT22;9069;52.044;7.472;2022-10-15T13:17:17;20.50;96.50
17887;DHT22;9069;52.044;7.472;2022-10-15T13:20:04;20.50;96.60
17887;DHT22;9069;52.044;7.472;2022-10-15T13:22:34;20.50;96.80
17887;DHT22;9069;52.044;7.472;2022-10-15T13:25:01;20.40;96.60
17887;DHT22;9069;52.044;7.472;2022-10-15T13:27:33;20.40;96.70
17887;DHT22;9069;52.044;7.472;2022-10-15T13:32:35;20.40;97.00
17887;DHT22;9069;52.044;7.472;2022-10-15T13:35:08;20.40;97.00
17887;DHT22;9069;52.044;7.472;2022-10-15T13:37:37;20.30;97.10
17887;DHT22;9069;52.044;7.472;2022-10-15T13:40:07;20.30;97.10
17887;DHT22;9069;52.044;7.472;2022-10-15T13:42:34;20.30;97.10
17887;DHT22;9069;52.044;7.472;2022-10-15T13:45:16;20.30;97.20
17887;DHT22;9069;52.044;7.472;2022-10-15T13:47:48;20.30;97.60
17887;DHT22;9069;52.044;7.472;2022-10-15T13:53:12;20.30;97.50
17887;DHT22;9069;52.044;7.472;2022-10-15T13:55:48;20.30;97.70
17887;DHT22;9069;52.044;7.472;2022-10-15T13:58:30;20.30;97.60
17887;DHT22;9069;52.044;7.472;2022-10-15T14:01:02;20.30;97.80
17887;DHT22;9069;52.044;7.472;2022-10-15T14:03:30;20.30;97.60
17887;DHT22;9069;52.044;7.472;2022-10-15T14:06:14;20.30;97.70
17887;DHT22;9069;52.044;7.472;2022-10-15T14:08:42;20.30;98.00
17887;DHT22;9069;52.044;7.472;2022-10-15T14:11:12;20.30;97.80
17887;DHT22;9069;52.044;7.472;2022-10-15T14:13:48;20.30;97.90
17887;DHT22;9069;52.044;7.472;2022-10-15T14:16:26;20.30;98.00
17887;DHT22;9069;52.044;7.472;2022-10-15T14:21:34;20.30;97.90
17887;DHT22;9069;52.044;7.472;2022-10-15T14:24:18;20.30;98.00
17887;DHT22;9069;52.044;7.472;2022-10-15T14:26:46;20.30;98.30
17887;DHT22;9069;52.044;7.472;2022-10-15T14:29:28;20.30;98.10
17887;DHT22;9069;52.044;7.472;2022-10-15T14:32:00;20.30;98.30
17887;DHT22;9069;52.044;7.472;2022-10-15T14:37:02;20.40;98.50
17887;DHT22;9069;52.044;7.472;2022-10-15T14:39:34;20.40;98.40
17887;DHT22;9069;52.044;7.472;2022-10-15T14:42:21;20.40;98.40
17887;DHT22;9069;52.044;7.472;2022-10-15T14:44:51;20.50;98.40
17887;DHT22;9069;52.044;7.472;2022-10-15T14:47:23;20.50;98.40
17887;DHT22;9069;52.044;7.472;2022-10-15T14:49:53;20.50;98.50
17887;DHT22;9069;52.044;7.472;2022-10-15T14:52:20;20.60;98.50
17887;DHT22;9069;52.044;7.472;2022-10-15T14:55:04;20.60;98.40
17887;DHT22;9069;52.044;7.472;2022-10-15T14:57:38;20.60;98.60
17887;DHT22;9069;52.044;7.472;2022-10-15T15:00:28;20.70;98.40
17887;DHT22;9069;52.044;7.472;2022-10-15T15:02:58;20.70;98.60
17887;DHT22;9069;52.044;7.472;2022-10-15T15:05:26;20.70;98.40
17887;DHT22;9069;52.044;7.472;2022-10-15T15:07:54;20.70;98.30
17887;DHT22;9069;52.044;7.472;2022-10-15T15:10:24;20.70;98.30
17887;DHT22;9069;52.044;7.472;2022-10-15T15:12:54;20.70;98.30
17887;DHT22;9069;52.044;7.472;2022-10-15T15:15:23;20.70;98.40
17887;DHT22;9069;52.044;7.472;2022-10-15T15:17:50;20.70;98.40
17887;DHT22;9069;52.044;7.472;2022-10-15T15:20:18;20.80;98.40
17887;DHT22;9069;52.044;7.472;2022-10-15T15:22:51;20.80;98.30
17887;DHT22;9069;52.044;7.472;2022-10-15T15:25:23;20.80;98.30
17887;DHT22;9069;52.044;7.472;2022-10-15T15:27:52;20.80;98.40
17887;DHT22;9069;52.044;7.472;2022-10-15T15:30:23;20.80;98.30
17887;DHT22;9069;52.044;7.472;2022-10-15T15:32:50;20.80;98.40
17887;DHT22;9069;52.044;7.472;2022-10-15T15:35:41;20.80;98.30
17887;DHT22;9069;52.044;7.472;2022-10-15T15:38:17;20.80;98.40
17887;DHT22;9069;52.044;7.472;2022-10-15T15:40:44;20.80;98.30
17887;DHT22;9069;52.044;7.472;2022-10-15T15:43:13;20.80;98.20
17887;DHT22;9069;52.044;7.472;2022-10-15T15:45:40;20.80;98.20
17887;DHT22;9069;52.044;7.472;2022-10-15T15:48:07;20.90;98.20
17887;DHT22;9069;52.044;7.472;2022-10-15T15:50:34;20.80;98.20
17887;DHT22;9069;52.044;7.472;2022-10-15T15:53:02;20.80;98.10
17887;DHT22;9069;52.044;7.472;2022-10-15T15:55:29;20.90;98.10
17887;DHT22;9069;52.044;7.472;2022-10-15T15:57:56;20.90;98.10
17887;DHT22;9069;52.044;7.472;2022-10-15T16:00:22;20.80;98.00
17887;DHT22;9069;52.044;7.472;2022-10-15T16:02:49;20.80;98.00
17887;DHT22;9069;52.044;7.472;2022-10-15T16:05:22;20.80;98.00
17887;DHT22;9069;52.044;7.472;2022-10-15T16:07:49;20.80;98.00
17887;DHT22;9069;52.044;7.472;2022-10-15T16:10:16;20.80;98.00
17887;DHT22;9069;52.044;7.472;2022-10-15T16:12:43;20.80;98.00
17887;DHT22;9069;52.044;7.472;2022-10-15T16:15:10;20.80;98.00
17887;DHT22;9069;52.044;7.472;2022-10-15T16:17:41;20.80;98.00
17887;DHT22;9069;52.044;7.472;2022-10-15T16:20:08;20.80;98.00
17887;DHT22;9069;52.044;7.472;2022-10-15T16:22:35;20.80;97.90
17887;DHT22;9069;52.044;7.472;2022-10-15T16:25:02;20.70;97.90
17887;DHT22;9069;52.044;7.472;2022-10-15T16:27:29;20.80;98.00
17887;DHT22;9069;52.044;7.472;2022-10-15T16:29:56;20.80;98.00
17887;DHT22;9069;52.044;7.472;2022-10-15T16:32:22;20.70;97.90
17887;DHT22;9069;52.044;7.472;2022-10-15T16:34:49;20.70;97.90
17887;DHT22;9069;52.044;7.472;2022-10-15T16:37:16;20.70;97.90
17887;DHT22;9069;52.044;7.472;2022-10-15T16:39:43;20.70;97.90
17887;DHT22;9069;52.044;7.472;2022-10-15T16:42:10;20.70;97.90
17887;DHT22;9069;52.044;7.472;2022-10-15T16:44:39;20.70;97.80
17887;DHT22;9069;52.044;7.472;2022-10-15T16:47:05;20.60;97.70
17887;DHT22;9069;52.044;7.472;2022-10-15T16:49:32;20.70;97.60
17887;DHT22;9069;52.044;7.472;2022-10-15T16:51:58;20.60;97.30
17887;DHT22;9069;52.044;7.472;2022-10-15T16:54:25;20.60;97.00
17887;DHT22;9069;52.044;7.472;2022-10-15T16:56:52;20.50;96.60
17887;DHT22;9069;52.044;7.472;2022-10-15T16:59:19;20.50;96.50
17887;DHT22;9069;52.044;7.472;2022-10-15T17:01:46;20.50;96.30
17887;DHT22;9069;52.044;7.472;2022-10-15T17:04:13;20.40;96.20
17887;DHT22;9069;52.044;7.472;2022-10-15T17:06:39;20.40;96.10
17887;DHT22;9069;52.044;7.472;2022-10-15T17:09:06;20.30;96.00
17887;DHT22;9069;52.044;7.472;2022-10-15T17:11:38;20.30;95.90
17887;DHT22;9069;52.044;7.472;2022-10-15T17:14:11;20.30;95.60
17887;DHT22;9069;52.044;7.472;2022-10-15T17:16:41;20.20;95.70
17887;DHT22;9069;52.044;7.472;2022-10-15T17:19:09;20.20;95.60
17887;DHT22;9069;52.044;7.472;2022-10-15T17:21:36;20.10;95.60
17887;DHT22;9069;52.044;7.472;2022-10-15T17:24:04;20.10;95.50
17887;DHT22;9069;52.044;7.472;2022-10-15T17:26:34;20.00;95.40
17887;DHT22;9069;52.044;7.472;2022-10-15T17:29:03;20.00;95.20
17887;DHT22;9069;52.044;7.472;2022-10-15T17:31:30;19.90;95.10
17887;DHT22;9069;52.044;7.472;2022-10-15T17:33:59;19.90;95.10
17887;DHT22;9069;52.044;7.472;2022-10-15T17:36:30;19.90;95.00
17887;DHT22;9069;52.044;7.472;2022-10-15T17:38:58;19.80;95.00
17887;DHT22;9069;52.044;7.472;2022-10-15T17:41:27;19.80;95.00
17887;DHT22;9069;52.044;7.472;2022-10-15T17:43:55;19.70;95.00
17887;DHT22;9069;52.044;7.472;2022-10-15T17:46:25;19.70;95.10
17887;DHT22;9069;52.044;7.472;2022-10-15T17:48:52;19.70;95.00
17887;DHT22;9069;52.044;7.472;2022-10-15T17:51:22;19.70;95.10
17887;DHT22;9069;52.044;7.472;2022-10-15T17:53:54;19.60;95.00
17887;DHT22;9069;52.044;7.472;2022-10-15T17:56:28;19.60;95.10
17887;DHT22;9069;52.044;7.472;2022-10-15T17:58:57;19.60;94.90
17887;DHT22;9069;52.044;7.472;2022-10-15T18:01:29;19.60;95.00
17887;DHT22;9069;52.044;7.472;2022-10-15T18:04:16;19.60;94.70
17887;DHT22;9069;52.044;7.472;2022-10-15T18:06:43;19.50;94.60
17887;DHT22;9069;52.044;7.472;2022-10-15T18:09:22;19.50;94.40
17887;DHT22;9069;52.044;7.472;2022-10-15T18:11:49;19.50;94.40
17887;DHT22;9069;52.044;7.472;2022-10-15T18:14:16;19.40;94.30
17887;DHT22;9069;52.044;7.472;2022-10-15T18:16:43;19.40;94.30
17887;DHT22;9069;52.044;7.472;2022-10-15T18:19:11;19.40;94.30
17887;DHT22;9069;52.044;7.472;2022-10-15T18:21:38;19.30;94.20
17887;DHT22;9069;52.044;7.472;2022-10-15T18:24:04;19.30;94.10